sensor_id;sensor_type;location;lat;lon;timestamp;pressure;altitude;pressure_sealevel;temperature;humidity
13705;BME280;6924;52.122;9.952;2024-01-07T00:02:23;100658.31;;;-1.10;100.00
13705;BME280;6924;52.122;9.952;2024-01-07T00:04:51;100661.81;;;-1.14;100.00
13705;BME280;6924;52.122;9.952;2024-01-07T00:07:17;100656.19;;;-1.26;100.00
13705;BME280;6924;52.122;9.952;2024-01-07T00:09:45;100665.84;;;-1.29;100.00
13705;BME280;6924;52.122;9.952;2024-01-07T00:12:12;100662.84;;;-1.27;100.00
13705;BME280;6924;52.122;9.952;2024-01-07T00:14:38;100667.38;;;-1.33;100.00
13705;BME280;6924;52.122;9.952;2024-01-07T00:17:04;100661.59;;;-1.31;100.00
13705;BME280;6924;52.122;9.952;2024-01-07T00:19:31;100678.56;;;-1.21;100.00
13705;BME280;6924;52.122;9.952;2024-01-07T00:22:01;100676.41;;;-1.19;100.00
13705;BME280;6924;52.122;9.952;2024-01-07T00:24:28;100679.00;;;-1.24;100.00
13705;BME280;6924;52.122;9.952;2024-01-07T00:26:55;100675.88;;;-1.28;100.00
13705;BME280;6924;52.122;9.952;2024-01-07T00:29:21;100683.09;;;-1.27;100.00
13705;BME280;6924;52.122;9.952;2024-01-07T00:31:48;100683.81;;;-1.31;100.00
13705;BME280;6924;52.122;9.952;2024-01-07T00:34:14;100685.75;;;-1.32;100.00
13705;BME280;6924;52.122;9.952;2024-01-07T00:36:40;100693.59;;;-1.29;100.00
13705;BME280;6924;52.122;9.952;2024-01-07T00:39:08;100696.84;;;-1.32;100.00
13705;BME280;6924;52.122;9.952;2024-01-07T00:41:35;100698.22;;;-1.22;100.00
13705;BME280;6924;52.122;9.952;2024-01-07T00:44:01;100701.91;;;-1.29;100.00
13705;BME280;6924;52.122;9.952;2024-01-07T00:46:27;100709.09;;;-1.21;100.00
13705;BME280;6924;52.122;9.952;2024-01-07T00:48:54;100708.16;;;-1.33;100.00
13705;BME280;6924;52.122;9.952;2024-01-07T00:51:20;100716.25;;;-1.32;100.00
13705;BME280;6924;52.122;9.952;2024-01-07T00:53:47;100718.50;;;-1.40;100.00
13705;BME280;6924;52.122;9.952;2024-01-07T00:56:14;100725.91;;;-1.34;100.00
13705;BME280;6924;52.122;9.952;2024-01-07T00:58:41;100721.28;;;-1.40;100.00
13705;BME280;6924;52.122;9.952;2024-01-07T01:01:07;100729.81;;;-1.42;100.00
13705;BME280;6924;52.122;9.952;2024-01-07T01:03:37;100720.97;;;-1.51;100.00
13705;BME280;6924;52.122;9.952;2024-01-07T01:06:03;100732.47;;;-1.47;100.00
13705;BME280;6924;52.122;9.952;2024-01-07T01:08:30;100740.53;;;-1.46;100.00
13705;BME280;6924;52.122;9.952;2024-01-07T01:10:56;100742.84;;;-1.42;100.00
13705;BME280;6924;52.122;9.952;2024-01-07T01:13:24;100744.31;;;-1.40;100.00
13705;BME280;6924;52.122;9.952;2024-01-07T01:15:50;100745.34;;;-1.34;100.00
13705;BME280;6924;52.122;9.952;2024-01-07T01:18:17;100746.94;;;-1.45;100.00
13705;BME280;6924;52.122;9.952;2024-01-07T01:20:44;100746.34;;;-1.47;100.00
13705;BME280;6924;52.122;9.952;2024-01-07T01:23:10;100751.19;;;-1.42;100.00
13705;BME280;6924;52.122;9.952;2024-01-07T01:25:36;100759.94;;;-1.46;100.00
13705;BME280;6924;52.122;9.952;2024-01-07T01:28:05;100757.19;;;-1.46;100.00
13705;BME280;6924;52.122;9.952;2024-01-07T01:30:33;100762.81;;;-1.52;100.00
13705;BME280;6924;52.122;9.952;2024-01-07T01:32:59;100760.97;;;-1.58;100.00
13705;BME280;6924;52.122;9.952;2024-01-07T01:35:27;100766.19;;;-1.50;100.00
13705;BME280;6924;52.122;9.952;2024-01-07T01:37:53;100770.47;;;-1.48;100.00
13705;BME280;6924;52.122;9.952;2024-01-07T01:40:20;100769.84;;;-1.50;100.00
13705;BME280;6924;52.122;9.952;2024-01-07T01:42:46;100774.06;;;-1.47;100.00
13705;BME280;6924;52.122;9.952;2024-01-07T01:45:13;100771.13;;;-1.52;100.00
13705;BME280;6924;52.122;9.952;2024-01-07T01:47:41;100785.41;;;-1.49;100.00
13705;BME280;6924;52.122;9.952;2024-01-07T01:50:08;100785.63;;;-1.50;100.00
13705;BME280;6924;52.122;9.952;2024-01-07T01:52:37;100784.69;;;-1.44;100.00
13705;BME280;6924;52.122;9.952;2024-01-07T01:55:04;100785.63;;;-1.50;100.00
13705;BME280;6924;52.122;9.952;2024-01-07T01:57:33;100789.47;;;-1.51;100.00
13705;BME280;6924;52.122;9.952;2024-01-07T02:00:01;100798.03;;;-1.53;100.00
13705;BME280;6924;52.122;9.952;2024-01-07T02:02:30;100796.97;;;-1.52;100.00
13705;BME280;6924;52.122;9.952;2024-01-07T02:05:00;100791.41;;;-1.52;100.00
13705;BME280;6924;52.122;9.952;2024-01-07T02:07:27;100804.03;;;-1.56;100.00
13705;BME280;6924;52.122;9.952;2024-01-07T02:09:54;100798.09;;;-1.59;100.00
13705;BME280;6924;52.122;9.952;2024-01-07T02:12:20;100806.28;;;-1.46;100.00
13705;BME280;6924;52.122;9.952;2024-01-07T02:14:46;100808.00;;;-1.45;100.00
13705;BME280;6924;52.122;9.952;2024-01-07T02:17:13;100806.06;;;-1.44;100.00
13705;BME280;6924;52.122;9.952;2024-01-07T02:19:40;100815.41;;;-1.64;100.00
13705;BME280;6924;52.122;9.952;2024-01-07T02:22:08;100811.97;;;-1.59;100.00
13705;BME280;6924;52.122;9.952;2024-01-07T02:24:35;100811.41;;;-1.68;100.00
13705;BME280;6924;52.122;9.952;2024-01-07T02:27:02;100823.19;;;-1.73;100.00
13705;BME280;6924;52.122;9.952;2024-01-07T02:29:28;100818.78;;;-1.80;100.00
13705;BME280;6924;52.122;9.952;2024-01-07T02:31:55;100821.16;;;-1.84;100.00
13705;BME280;6924;52.122;9.952;2024-01-07T02:34:21;100822.94;;;-1.90;100.00
13705;BME280;6924;52.122;9.952;2024-01-07T02:36:48;100825.03;;;-1.85;100.00
13705;BME280;6924;52.122;9.952;2024-01-07T02:39:14;100831.41;;;-1.84;100.00
13705;BME280;6924;52.122;9.952;2024-01-07T02:41:42;100830.09;;;-1.82;100.00
13705;BME280;6924;52.122;9.952;2024-01-07T02:44:08;100841.72;;;-1.92;100.00
13705;BME280;6924;52.122;9.952;2024-01-07T02:46:35;100851.31;;;-1.94;100.00
13705;BME280;6924;52.122;9.952;2024-01-07T02:49:01;100847.91;;;-1.96;100.00
13705;BME280;6924;52.122;9.952;2024-01-07T02:51:27;100838.00;;;-1.85;100.00
13705;BME280;6924;52.122;9.952;2024-01-07T02:53:54;100845.84;;;-1.76;100.00
13705;BME280;6924;52.122;9.952;2024-01-07T02:56:20;100845.00;;;-1.76;100.00
13705;BME280;6924;52.122;9.952;2024-01-07T02:58:48;100845.38;;;-1.73;100.00
13705;BME280;6924;52.122;9.952;2024-01-07T03:01:14;100858.50;;;-1.87;100.00
13705;BME280;6924;52.122;9.952;2024-01-07T03:03:41;100854.69;;;-1.92;100.00
13705;BME280;6924;52.122;9.952;2024-01-07T03:06:07;100865.78;;;-1.92;100.00
13705;BME280;6924;52.122;9.952;2024-01-07T03:08:34;100863.84;;;-1.85;100.00
13705;BME280;6924;52.122;9.952;2024-01-07T03:11:04;100868.81;;;-1.94;100.00
13705;BME280;6924;52.122;9.952;2024-01-07T03:13:31;100875.34;;;-1.88;100.00
13705;BME280;6924;52.122;9.952;2024-01-07T03:15:58;100869.38;;;-1.85;100.00
13705;BME280;6924;52.122;9.952;2024-01-07T03:18:26;100879.59;;;-1.85;100.00
13705;BME280;6924;52.122;9.952;2024-01-07T03:20:53;100874.50;;;-1.89;100.00
13705;BME280;6924;52.122;9.952;2024-01-07T03:23:19;100874.31;;;-1.87;100.00
13705;BME280;6924;52.122;9.952;2024-01-07T03:25:45;100883.94;;;-1.96;100.00
13705;BME280;6924;52.122;9.952;2024-01-07T03:28:12;100892.94;;;-2.01;100.00
13705;BME280;6924;52.122;9.952;2024-01-07T03:30:38;100900.56;;;-1.96;100.00
13705;BME280;6924;52.122;9.952;2024-01-07T03:33:06;100888.94;;;-2.05;100.00
13705;BME280;6924;52.122;9.952;2024-01-07T03:35:32;100897.63;;;-2.01;100.00
13705;BME280;6924;52.122;9.952;2024-01-07T03:37:58;100894.88;;;-2.01;100.00
13705;BME280;6924;52.122;9.952;2024-01-07T03:40:25;100897.69;;;-2.08;100.00
13705;BME280;6924;52.122;9.952;2024-01-07T03:42:51;100896.59;;;-2.00;100.00
13705;BME280;6924;52.122;9.952;2024-01-07T03:45:18;100897.22;;;-1.98;100.00
13705;BME280;6924;52.122;9.952;2024-01-07T03:47:43;100905.31;;;-2.03;100.00
13705;BME280;6924;52.122;9.952;2024-01-07T03:50:11;100910.47;;;-2.07;100.00
13705;BME280;6924;52.122;9.952;2024-01-07T03:52:37;100914.59;;;-2.23;100.00
13705;BME280;6924;52.122;9.952;2024-01-07T03:55:05;100918.00;;;-2.21;100.00
13705;BME280;6924;52.122;9.952;2024-01-07T03:57:31;100909.28;;;-2.18;100.00
13705;BME280;6924;52.122;9.952;2024-01-07T03:59:58;100925.03;;;-2.18;100.00
13705;BME280;6924;52.122;9.952;2024-01-07T04:02:24;100923.59;;;-2.28;100.00
13705;BME280;6924;52.122;9.952;2024-01-07T04:04:51;100924.25;;;-2.32;100.00
13705;BME280;6924;52.122;9.952;2024-01-07T04:07:19;100930.63;;;-2.32;100.00
13705;BME280;6924;52.122;9.952;2024-01-07T04:09:45;100931.91;;;-2.28;100.00
13705;BME280;6924;52.122;9.952;2024-01-07T04:12:11;100930.44;;;-2.30;100.00
13705;BME280;6924;52.122;9.952;2024-01-07T04:14:38;100935.34;;;-2.32;100.00
13705;BME280;6924;52.122;9.952;2024-01-07T04:17:04;100941.72;;;-2.32;100.00
13705;BME280;6924;52.122;9.952;2024-01-07T04:19:33;100939.38;;;-2.28;100.00
13705;BME280;6924;52.122;9.952;2024-01-07T04:21:59;100946.88;;;-2.35;100.00
13705;BME280;6924;52.122;9.952;2024-01-07T04:24:27;100950.06;;;-2.38;100.00
13705;BME280;6924;52.122;9.952;2024-01-07T04:26:53;100957.34;;;-2.44;100.00
13705;BME280;6924;52.122;9.952;2024-01-07T04:29:20;100953.31;;;-2.48;100.00
13705;BME280;6924;52.122;9.952;2024-01-07T04:31:46;100960.50;;;-2.40;100.00
13705;BME280;6924;52.122;9.952;2024-01-07T04:34:12;100957.78;;;-2.47;100.00
13705;BME280;6924;52.122;9.952;2024-01-07T04:36:39;100954.97;;;-2.40;100.00
13705;BME280;6924;52.122;9.952;2024-01-07T04:39:05;100962.03;;;-2.38;100.00
13705;BME280;6924;52.122;9.952;2024-01-07T04:41:34;100969.03;;;-2.35;100.00
13705;BME280;6924;52.122;9.952;2024-01-07T04:44:01;100969.44;;;-2.32;100.00
13705;BME280;6924;52.122;9.952;2024-01-07T04:46:33;100966.47;;;-2.37;100.00
13705;BME280;6924;52.122;9.952;2024-01-07T04:49:00;100961.16;;;-2.38;100.00
13705;BME280;6924;52.122;9.952;2024-01-07T04:51:27;100984.81;;;-2.36;100.00
13705;BME280;6924;52.122;9.952;2024-01-07T04:53:53;100975.63;;;-2.36;100.00
13705;BME280;6924;52.122;9.952;2024-01-07T04:56:19;100973.34;;;-2.46;100.00
13705;BME280;6924;52.122;9.952;2024-01-07T04:58:47;100978.84;;;-2.39;100.00
13705;BME280;6924;52.122;9.952;2024-01-07T05:01:14;100987.19;;;-2.46;100.00
13705;BME280;6924;52.122;9.952;2024-01-07T05:03:40;100988.03;;;-2.45;100.00
13705;BME280;6924;52.122;9.952;2024-01-07T05:06:08;100994.63;;;-2.40;100.00
13705;BME280;6924;52.122;9.952;2024-01-07T05:08:34;100998.22;;;-2.33;100.00
13705;BME280;6924;52.122;9.952;2024-01-07T05:11:00;101001.44;;;-2.36;100.00
13705;BME280;6924;52.122;9.952;2024-01-07T05:13:27;101001.88;;;-2.45;100.00
13705;BME280;6924;52.122;9.952;2024-01-07T05:15:54;101011.91;;;-2.44;100.00
13705;BME280;6924;52.122;9.952;2024-01-07T05:18:21;101010.38;;;-2.40;100.00
13705;BME280;6924;52.122;9.952;2024-01-07T05:20:48;101012.97;;;-2.45;100.00
13705;BME280;6924;52.122;9.952;2024-01-07T05:23:14;101022.53;;;-2.41;100.00
13705;BME280;6924;52.122;9.952;2024-01-07T05:25:42;101019.78;;;-2.41;100.00
13705;BME280;6924;52.122;9.952;2024-01-07T05:28:08;101022.78;;;-2.50;100.00
13705;BME280;6924;52.122;9.952;2024-01-07T05:30:35;101021.91;;;-2.43;100.00
13705;BME280;6924;52.122;9.952;2024-01-07T05:33:02;101036.84;;;-2.44;100.00
13705;BME280;6924;52.122;9.952;2024-01-07T05:35:29;101039.00;;;-2.53;100.00
13705;BME280;6924;52.122;9.952;2024-01-07T05:37:56;101044.75;;;-2.55;100.00
13705;BME280;6924;52.122;9.952;2024-01-07T05:40:22;101043.47;;;-2.59;100.00
13705;BME280;6924;52.122;9.952;2024-01-07T05:42:49;101047.50;;;-2.55;100.00
13705;BME280;6924;52.122;9.952;2024-01-07T05:45:15;101059.44;;;-2.61;100.00
13705;BME280;6924;52.122;9.952;2024-01-07T05:47:41;101053.91;;;-2.54;100.00
13705;BME280;6924;52.122;9.952;2024-01-07T05:50:09;101055.38;;;-2.52;100.00
13705;BME280;6924;52.122;9.952;2024-01-07T05:52:36;101055.63;;;-2.53;100.00
13705;BME280;6924;52.122;9.952;2024-01-07T05:55:03;101061.16;;;-2.46;100.00
13705;BME280;6924;52.122;9.952;2024-01-07T05:57:30;101072.44;;;-2.48;100.00
13705;BME280;6924;52.122;9.952;2024-01-07T05:59:56;101069.22;;;-2.52;100.00
13705;BME280;6924;52.122;9.952;2024-01-07T06:02:22;101068.84;;;-2.55;100.00
13705;BME280;6924;52.122;9.952;2024-01-07T06:04:49;101072.63;;;-2.43;100.00
13705;BME280;6924;52.122;9.952;2024-01-07T06:07:17;101077.28;;;-2.30;100.00
13705;BME280;6924;52.122;9.952;2024-01-07T06:09:43;101082.63;;;-2.35;100.00
13705;BME280;6924;52.122;9.952;2024-01-07T06:12:10;101084.34;;;-2.47;100.00
13705;BME280;6924;52.122;9.952;2024-01-07T06:14:36;101086.72;;;-2.51;100.00
13705;BME280;6924;52.122;9.952;2024-01-07T06:17:03;101085.22;;;-2.60;100.00
13705;BME280;6924;52.122;9.952;2024-01-07T06:19:30;101105.03;;;-2.57;100.00
13705;BME280;6924;52.122;9.952;2024-01-07T06:21:56;101106.97;;;-2.57;100.00
13705;BME280;6924;52.122;9.952;2024-01-07T06:24:24;101104.63;;;-2.67;100.00
13705;BME280;6924;52.122;9.952;2024-01-07T06:26:50;101119.97;;;-2.58;100.00
13705;BME280;6924;52.122;9.952;2024-01-07T06:29:16;101105.91;;;-2.63;100.00
13705;BME280;6924;52.122;9.952;2024-01-07T06:31:44;101117.22;;;-2.64;100.00
13705;BME280;6924;52.122;9.952;2024-01-07T06:34:10;101127.84;;;-2.68;100.00
13705;BME280;6924;52.122;9.952;2024-01-07T06:36:38;101125.50;;;-2.58;100.00
13705;BME280;6924;52.122;9.952;2024-01-07T06:39:05;101134.22;;;-2.67;100.00
13705;BME280;6924;52.122;9.952;2024-01-07T06:41:34;101137.84;;;-2.60;100.00
13705;BME280;6924;52.122;9.952;2024-01-07T06:44:01;101137.00;;;-2.61;100.00
13705;BME280;6924;52.122;9.952;2024-01-07T06:46:27;101143.63;;;-2.62;100.00
13705;BME280;6924;52.122;9.952;2024-01-07T06:48:54;101150.66;;;-2.66;100.00
13705;BME280;6924;52.122;9.952;2024-01-07T06:51:20;101164.91;;;-2.76;100.00
13705;BME280;6924;52.122;9.952;2024-01-07T06:53:47;101165.53;;;-2.74;100.00
13705;BME280;6924;52.122;9.952;2024-01-07T06:56:15;101169.81;;;-2.84;100.00
13705;BME280;6924;52.122;9.952;2024-01-07T06:58:43;101183.44;;;-2.89;100.00
13705;BME280;6924;52.122;9.952;2024-01-07T07:01:09;101185.56;;;-2.85;100.00
13705;BME280;6924;52.122;9.952;2024-01-07T07:03:36;101175.56;;;-2.86;100.00
13705;BME280;6924;52.122;9.952;2024-01-07T07:06:03;101188.13;;;-2.90;100.00
13705;BME280;6924;52.122;9.952;2024-01-07T07:08:30;101203.44;;;-2.94;100.00
13705;BME280;6924;52.122;9.952;2024-01-07T07:10:56;101194.69;;;-2.98;100.00
13705;BME280;6924;52.122;9.952;2024-01-07T07:13:23;101194.91;;;-2.99;100.00
13705;BME280;6924;52.122;9.952;2024-01-07T07:15:50;101204.28;;;-2.94;100.00
13705;BME280;6924;52.122;9.952;2024-01-07T07:18:17;101213.88;;;-2.96;100.00
13705;BME280;6924;52.122;9.952;2024-01-07T07:20:43;101223.66;;;-3.00;100.00
13705;BME280;6924;52.122;9.952;2024-01-07T07:23:09;101216.41;;;-3.01;100.00
13705;BME280;6924;52.122;9.952;2024-01-07T07:25:36;101229.41;;;-3.02;100.00
13705;BME280;6924;52.122;9.952;2024-01-07T07:28:03;101228.56;;;-2.89;100.00
13705;BME280;6924;52.122;9.952;2024-01-07T07:30:29;101230.47;;;-2.96;99.62
13705;BME280;6924;52.122;9.952;2024-01-07T07:32:57;101237.09;;;-2.91;100.00
13705;BME280;6924;52.122;9.952;2024-01-07T07:35:24;101248.19;;;-2.77;100.00
13705;BME280;6924;52.122;9.952;2024-01-07T07:37:50;101241.59;;;-2.76;98.98
13705;BME280;6924;52.122;9.952;2024-01-07T07:40:16;101244.16;;;-2.81;97.10
13705;BME280;6924;52.122;9.952;2024-01-07T07:42:44;101245.63;;;-2.85;98.68
13705;BME280;6924;52.122;9.952;2024-01-07T07:45:10;101252.44;;;-2.81;98.38
13705;BME280;6924;52.122;9.952;2024-01-07T07:47:37;101254.56;;;-2.83;98.27
13705;BME280;6924;52.122;9.952;2024-01-07T07:50:07;101259.28;;;-2.77;97.63
13705;BME280;6924;52.122;9.952;2024-01-07T07:52:35;101261.41;;;-2.79;98.44
13705;BME280;6924;52.122;9.952;2024-01-07T07:55:01;101269.03;;;-2.88;97.24
13705;BME280;6924;52.122;9.952;2024-01-07T07:57:28;101262.22;;;-2.85;97.11
13705;BME280;6924;52.122;9.952;2024-01-07T07:59:54;101267.13;;;-2.87;96.12
13705;BME280;6924;52.122;9.952;2024-01-07T08:02:21;101270.94;;;-2.95;97.15
13705;BME280;6924;52.122;9.952;2024-01-07T08:04:48;101284.19;;;-2.84;98.09
13705;BME280;6924;52.122;9.952;2024-01-07T08:07:15;101292.03;;;-2.87;97.45
13705;BME280;6924;52.122;9.952;2024-01-07T08:09:42;101293.53;;;-2.85;97.87
13705;BME280;6924;52.122;9.952;2024-01-07T08:12:08;101301.00;;;-2.85;98.78
13705;BME280;6924;52.122;9.952;2024-01-07T08:14:35;101299.31;;;-2.86;96.45
13705;BME280;6924;52.122;9.952;2024-01-07T08:17:02;101301.00;;;-2.85;98.32
13705;BME280;6924;52.122;9.952;2024-01-07T08:19:29;101296.31;;;-2.85;100.00
13705;BME280;6924;52.122;9.952;2024-01-07T08:21:56;101317.81;;;-2.80;100.00
13705;BME280;6924;52.122;9.952;2024-01-07T08:24:23;101309.34;;;-2.72;98.34
13705;BME280;6924;52.122;9.952;2024-01-07T08:26:50;101313.41;;;-2.68;96.06
13705;BME280;6924;52.122;9.952;2024-01-07T08:29:16;101319.56;;;-2.73;96.49
13705;BME280;6924;52.122;9.952;2024-01-07T08:31:43;101327.03;;;-2.66;98.13
13705;BME280;6924;52.122;9.952;2024-01-07T08:34:11;101312.13;;;-2.65;95.26
13705;BME280;6924;52.122;9.952;2024-01-07T08:36:38;101321.25;;;-2.78;95.14
13705;BME280;6924;52.122;9.952;2024-01-07T08:39:05;101320.19;;;-2.77;95.56
13705;BME280;6924;52.122;9.952;2024-01-07T08:41:32;101320.63;;;-2.74;97.90
13705;BME280;6924;52.122;9.952;2024-01-07T08:43:59;101328.28;;;-2.69;99.19
13705;BME280;6924;52.122;9.952;2024-01-07T08:46:26;101327.25;;;-2.61;99.08
13705;BME280;6924;52.122;9.952;2024-01-07T08:48:52;101336.22;;;-2.53;97.00
13705;BME280;6924;52.122;9.952;2024-01-07T08:51:18;101341.13;;;-2.61;97.48
13705;BME280;6924;52.122;9.952;2024-01-07T08:53:45;101343.00;;;-2.68;97.74
13705;BME280;6924;52.122;9.952;2024-01-07T08:56:12;101344.50;;;-2.66;98.98
13705;BME280;6924;52.122;9.952;2024-01-07T08:58:41;101348.72;;;-2.77;97.85
13705;BME280;6924;52.122;9.952;2024-01-07T09:01:08;101349.84;;;-2.71;98.73
13705;BME280;6924;52.122;9.952;2024-01-07T09:03:34;101354.28;;;-2.70;96.68
13705;BME280;6924;52.122;9.952;2024-01-07T09:06:00;101355.38;;;-2.71;96.64
13705;BME280;6924;52.122;9.952;2024-01-07T09:08:27;101358.97;;;-2.71;97.94
13705;BME280;6924;52.122;9.952;2024-01-07T09:10:54;101367.28;;;-2.71;97.25
13705;BME280;6924;52.122;9.952;2024-01-07T09:13:20;101364.53;;;-2.71;98.04
13705;BME280;6924;52.122;9.952;2024-01-07T09:15:48;101373.25;;;-2.67;97.55
13705;BME280;6924;52.122;9.952;2024-01-07T09:18:14;101377.53;;;-2.64;98.28
13705;BME280;6924;52.122;9.952;2024-01-07T09:20:41;101365.38;;;-2.63;98.67
13705;BME280;6924;52.122;9.952;2024-01-07T09:23:07;101372.69;;;-2.56;98.48
13705;BME280;6924;52.122;9.952;2024-01-07T09:25:33;101370.72;;;-2.62;98.81
13705;BME280;6924;52.122;9.952;2024-01-07T09:28:00;101382.22;;;-2.65;99.38
13705;BME280;6924;52.122;9.952;2024-01-07T09:30:26;101382.00;;;-2.63;100.00
13705;BME280;6924;52.122;9.952;2024-01-07T09:32:54;101392.69;;;-2.47;99.53
13705;BME280;6924;52.122;9.952;2024-01-07T09:35:20;101392.50;;;-2.45;98.22
13705;BME280;6924;52.122;9.952;2024-01-07T09:37:47;101399.50;;;-2.56;98.58
13705;BME280;6924;52.122;9.952;2024-01-07T09:40:17;101396.69;;;-2.63;99.74
13705;BME280;6924;52.122;9.952;2024-01-07T09:42:44;101404.44;;;-2.45;99.98
13705;BME280;6924;52.122;9.952;2024-01-07T09:45:12;101403.59;;;-2.45;99.58
13705;BME280;6924;52.122;9.952;2024-01-07T09:47:39;101410.22;;;-2.40;99.88
13705;BME280;6924;52.122;9.952;2024-01-07T09:50:08;101398.25;;;-2.47;100.00
13705;BME280;6924;52.122;9.952;2024-01-07T09:52:35;101401.25;;;-2.42;100.00
13705;BME280;6924;52.122;9.952;2024-01-07T09:55:03;101400.44;;;-2.36;100.00
13705;BME280;6924;52.122;9.952;2024-01-07T09:57:30;101409.41;;;-2.27;100.00
13705;BME280;6924;52.122;9.952;2024-01-07T09:59:56;101404.94;;;-2.21;98.79
13705;BME280;6924;52.122;9.952;2024-01-07T10:02:22;101395.13;;;-2.17;97.24
13705;BME280;6924;52.122;9.952;2024-01-07T10:04:49;101400.47;;;-2.16;98.04
13705;BME280;6924;52.122;9.952;2024-01-07T10:07:17;101405.38;;;-2.11;97.15
13705;BME280;6924;52.122;9.952;2024-01-07T10:09:44;101409.19;;;-2.19;98.27
13705;BME280;6924;52.122;9.952;2024-01-07T10:12:10;101409.63;;;-2.29;99.07
13705;BME280;6924;52.122;9.952;2024-01-07T10:14:37;101403.63;;;-2.32;100.00
13705;BME280;6924;52.122;9.952;2024-01-07T10:17:14;101414.31;;;-2.29;100.00
13705;BME280;6924;52.122;9.952;2024-01-07T10:19:43;101408.78;;;-2.22;100.00
13705;BME280;6924;52.122;9.952;2024-01-07T10:22:12;101415.38;;;-2.17;100.00
13705;BME280;6924;52.122;9.952;2024-01-07T10:24:40;101407.72;;;-2.15;100.00
13705;BME280;6924;52.122;9.952;2024-01-07T10:27:09;101405.56;;;-2.19;100.00
13705;BME280;6924;52.122;9.952;2024-01-07T10:29:35;101410.22;;;-2.40;100.00
13705;BME280;6924;52.122;9.952;2024-01-07T10:32:03;101411.06;;;-2.46;100.00
13705;BME280;6924;52.122;9.952;2024-01-07T10:34:31;101413.44;;;-2.30;100.00
13705;BME280;6924;52.122;9.952;2024-01-07T10:36:59;101412.41;;;-2.22;100.00
13705;BME280;6924;52.122;9.952;2024-01-07T10:39:26;101407.72;;;-2.15;100.00
13705;BME280;6924;52.122;9.952;2024-01-07T10:41:54;101409.66;;;-2.09;100.00
13705;BME280;6924;52.122;9.952;2024-01-07T10:44:24;101412.88;;;-1.98;100.00
13705;BME280;6924;52.122;9.952;2024-01-07T10:46:53;101407.53;;;-2.06;100.00
13705;BME280;6924;52.122;9.952;2024-01-07T10:49:20;101422.03;;;-2.04;100.00
13705;BME280;6924;52.122;9.952;2024-01-07T10:51:53;101417.78;;;-2.07;100.00
13705;BME280;6924;52.122;9.952;2024-01-07T10:54:24;101413.72;;;-1.98;100.00
13705;BME280;6924;52.122;9.952;2024-01-07T10:56:58;101415.16;;;-2.22;100.00
13705;BME280;6924;52.122;9.952;2024-01-07T10:59:26;101423.06;;;-2.12;100.00
13705;BME280;6924;52.122;9.952;2024-01-07T11:01:53;101426.09;;;-1.94;100.00
13705;BME280;6924;52.122;9.952;2024-01-07T11:04:23;101425.66;;;-1.91;100.00
13705;BME280;6924;52.122;9.952;2024-01-07T11:06:54;101424.63;;;-1.90;100.00
13705;BME280;6924;52.122;9.952;2024-01-07T11:09:28;101421.34;;;-2.20;100.00
13705;BME280;6924;52.122;9.952;2024-01-07T11:11:59;101427.94;;;-2.21;100.00
13705;BME280;6924;52.122;9.952;2024-01-07T11:14:39;101417.94;;;-2.22;100.00
13705;BME280;6924;52.122;9.952;2024-01-07T11:17:07;101424.78;;;-2.11;100.00
13705;BME280;6924;52.122;9.952;2024-01-07T11:19:35;101419.03;;;-2.03;100.00
13705;BME280;6924;52.122;9.952;2024-01-07T11:22:24;101415.81;;;-2.20;100.00
13705;BME280;6924;52.122;9.952;2024-01-07T11:24:53;101411.38;;;-1.94;100.00
13705;BME280;6924;52.122;9.952;2024-01-07T11:27:22;101417.34;;;-2.04;100.00
13705;BME280;6924;52.122;9.952;2024-01-07T11:29:55;101422.44;;;-2.08;100.00
13705;BME280;6924;52.122;9.952;2024-01-07T11:32:23;101412.66;;;-1.83;100.00
13705;BME280;6924;52.122;9.952;2024-01-07T11:34:51;101413.75;;;-1.84;100.00
13705;BME280;6924;52.122;9.952;2024-01-07T11:37:19;101410.94;;;-1.98;100.00
13705;BME280;6924;52.122;9.952;2024-01-07T11:39:47;101413.06;;;-2.06;100.00
13705;BME280;6924;52.122;9.952;2024-01-07T11:42:14;101409.84;;;-2.17;100.00
13705;BME280;6924;52.122;9.952;2024-01-07T11:44:50;101415.84;;;-2.13;100.00
13705;BME280;6924;52.122;9.952;2024-01-07T11:47:16;101414.53;;;-2.24;100.00
13705;BME280;6924;52.122;9.952;2024-01-07T11:49:43;101411.16;;;-2.06;100.00
13705;BME280;6924;52.122;9.952;2024-01-07T11:52:10;101419.69;;;-2.01;100.00
13705;BME280;6924;52.122;9.952;2024-01-07T11:54:37;101414.78;;;-1.92;100.00
13705;BME280;6924;52.122;9.952;2024-01-07T11:57:04;101415.59;;;-2.18;100.00
13705;BME280;6924;52.122;9.952;2024-01-07T11:59:31;101410.47;;;-2.28;100.00
13705;BME280;6924;52.122;9.952;2024-01-07T12:01:59;101404.28;;;-2.23;100.00
13705;BME280;6924;52.122;9.952;2024-01-07T12:04:25;101411.13;;;-2.13;100.00
13705;BME280;6924;52.122;9.952;2024-01-07T12:06:52;101415.66;;;-2.05;100.00
13705;BME280;6924;52.122;9.952;2024-01-07T12:09:18;101407.94;;;-1.96;100.00
13705;BME280;6924;52.122;9.952;2024-01-07T12:11:45;101408.38;;;-1.99;100.00
13705;BME280;6924;52.122;9.952;2024-01-07T12:14:12;101412.00;;;-1.99;100.00
13705;BME280;6924;52.122;9.952;2024-01-07T12:16:38;101409.00;;;-2.17;100.00
13705;BME280;6924;52.122;9.952;2024-01-07T12:19:08;101410.47;;;-2.21;100.00
13705;BME280;6924;52.122;9.952;2024-01-07T12:21:34;101413.28;;;-2.01;100.00
13705;BME280;6924;52.122;9.952;2024-01-07T12:24:01;101408.38;;;-2.13;100.00
13705;BME280;6924;52.122;9.952;2024-01-07T12:26:29;101420.72;;;-2.15;100.00
13705;BME280;6924;52.122;9.952;2024-01-07T12:28:58;101423.31;;;-2.14;100.00
13705;BME280;6924;52.122;9.952;2024-01-07T12:31:29;101420.72;;;-2.15;100.00
13705;BME280;6924;52.122;9.952;2024-01-07T12:33:56;101416.47;;;-2.11;100.00
13705;BME280;6924;52.122;9.952;2024-01-07T12:36:24;101418.84;;;-1.95;100.00
13705;BME280;6924;52.122;9.952;2024-01-07T12:38:51;101425.84;;;-2.12;100.00
13705;BME280;6924;52.122;9.952;2024-01-07T12:41:19;101438.00;;;-2.20;100.00
13705;BME280;6924;52.122;9.952;2024-01-07T12:43:45;101432.44;;;-2.20;100.00
13705;BME280;6924;52.122;9.952;2024-01-07T12:46:12;101430.13;;;-2.03;100.00
13705;BME280;6924;52.122;9.952;2024-01-07T12:48:38;101433.34;;;-1.93;100.00
13705;BME280;6924;52.122;9.952;2024-01-07T12:51:04;101429.53;;;-1.92;100.00
13705;BME280;6924;52.122;9.952;2024-01-07T12:53:32;101434.16;;;-2.05;100.00